createdAt,value
2023-03-24T00:00:47.889Z,2.00
2023-03-24T00:03:19.860Z,1.93
2023-03-24T00:06:05.424Z,2.00
2023-03-24T00:08:37.394Z,1.60
2023-03-24T00:11:11.633Z,1.70
2023-03-24T00:13:43.373Z,1.70
2023-03-24T00:16:16.975Z,1.80
2023-03-24T00:18:53.165Z,2.10
2023-03-24T00:21:26.521Z,1.83
2023-03-24T00:23:59.632Z,2.00
2023-03-24T00:26:32.288Z,1.53
2023-03-24T00:29:05.625Z,2.00
2023-03-24T00:31:40.440Z,1.90
2023-03-24T00:34:13.438Z,1.70
2023-03-24T00:36:45.186Z,1.63
2023-03-24T00:39:18.895Z,1.60
2023-03-24T00:41:50.668Z,2.20
2023-03-24T00:44:22.409Z,1.70
2023-03-24T00:46:56.980Z,1.93
2023-03-24T00:49:42.632Z,1.60
2023-03-24T00:52:20.821Z,1.80
2023-03-24T00:54:59.164Z,1.80
2023-03-24T00:57:34.841Z,1.60
2023-03-24T01:00:16.899Z,2.10
2023-03-24T01:02:53.693Z,1.80
2023-03-24T01:05:29.615Z,2.27
2023-03-24T01:08:06.192Z,2.30
2023-03-24T01:10:50.272Z,2.03
2023-03-24T01:13:28.357Z,2.63
2023-03-24T01:16:00.226Z,1.87
2023-03-24T01:18:32.169Z,2.30
2023-03-24T01:21:04.008Z,2.03
2023-03-24T01:23:36.187Z,2.20
2023-03-24T01:26:09.728Z,2.40
2023-03-24T01:28:43.627Z,2.07
2023-03-24T01:31:15.538Z,2.30
2023-03-24T01:33:47.462Z,2.40
2023-03-24T01:36:19.220Z,2.67
2023-03-24T01:38:51.217Z,2.27
2023-03-24T01:41:22.961Z,2.60
2023-03-24T01:43:54.675Z,2.10
2023-03-24T01:46:29.553Z,2.80
2023-03-24T01:49:08.265Z,2.70
2023-03-24T01:51:44.265Z,2.50
2023-03-24T01:54:27.472Z,2.23
2023-03-24T01:57:17.749Z,2.43
2023-03-24T01:59:53.852Z,2.50
2023-03-24T02:02:54.852Z,2.80
2023-03-24T02:05:33.503Z,2.73
2023-03-24T02:08:18.659Z,2.50
2023-03-24T02:10:52.262Z,2.87
2023-03-24T02:13:24.010Z,2.70
2023-03-24T02:16:19.703Z,2.90
2023-03-24T02:19:38.090Z,3.17
2023-03-24T02:22:58.561Z,2.80
2023-03-24T02:26:07.802Z,2.93
2023-03-24T02:29:05.808Z,3.13
2023-03-24T02:31:46.779Z,3.07
2023-03-24T02:34:33.940Z,2.83
2023-03-24T02:37:27.553Z,2.73
2023-03-24T02:40:08.313Z,2.80
2023-03-24T02:43:00.245Z,3.07
2023-03-24T02:45:41.932Z,3.23
2023-03-24T02:48:37.008Z,2.93
2023-03-24T02:51:20.356Z,3.03
2023-03-24T02:54:11.445Z,2.93
2023-03-24T02:56:49.259Z,3.37
2023-03-24T02:59:49.951Z,3.17
2023-03-24T03:03:02.954Z,3.10
2023-03-24T03:05:49.483Z,3.50
2023-03-24T03:08:23.876Z,2.77
2023-03-24T03:10:58.431Z,3.27
2023-03-24T03:13:44.104Z,3.50
2023-03-24T03:16:38.369Z,3.23
2023-03-24T03:19:21.020Z,2.80
2023-03-24T03:21:54.372Z,3.17
2023-03-24T03:24:34.823Z,3.43
2023-03-24T03:27:28.858Z,3.17
2023-03-24T03:30:06.434Z,3.20
2023-03-24T03:32:44.940Z,3.10
2023-03-24T03:35:24.018Z,2.90
2023-03-24T03:38:08.603Z,2.73
2023-03-24T03:40:50.506Z,3.60
2023-03-24T03:43:26.990Z,3.10
2023-03-24T03:46:00.206Z,3.07
2023-03-24T03:48:39.837Z,3.17
2023-03-24T03:51:14.445Z,2.93
2023-03-24T03:53:59.779Z,2.93
2023-03-24T03:56:35.780Z,3.10
2023-03-24T03:59:36.267Z,2.97
2023-03-24T04:02:53.413Z,3.03
2023-03-24T04:05:29.104Z,3.00
2023-03-24T04:08:22.087Z,2.70
2023-03-24T04:11:13.369Z,2.60
2023-03-24T04:14:20.308Z,2.53
2023-03-24T04:17:11.174Z,3.20
2023-03-24T04:20:05.642Z,2.97
2023-03-24T04:23:05.625Z,2.67
2023-03-24T04:26:14.963Z,3.13
2023-03-24T04:29:22.451Z,2.80
2023-03-24T04:32:05.946Z,2.90
2023-03-24T04:34:42.257Z,3.13
2023-03-24T04:37:37.853Z,2.97
2023-03-24T04:40:18.020Z,3.20
2023-03-24T04:42:53.717Z,3.10
2023-03-24T04:45:33.379Z,3.00
2023-03-24T04:48:23.820Z,3.23
2023-03-24T04:51:26.991Z,3.13
2023-03-24T04:54:06.389Z,3.17
2023-03-24T04:56:50.812Z,3.00
2023-03-24T04:59:42.963Z,3.10
2023-03-24T05:02:15.591Z,2.57
2023-03-24T05:04:57.410Z,3.10
2023-03-24T05:07:34.216Z,2.97
2023-03-24T05:10:10.659Z,3.30
2023-03-24T05:12:48.872Z,3.40
2023-03-24T05:15:32.365Z,3.40
2023-03-24T05:18:25.629Z,3.20
2023-03-24T05:20:57.424Z,3.30
2023-03-24T05:23:30.084Z,3.80
2023-03-24T05:26:03.049Z,3.70
2023-03-24T05:28:37.904Z,3.57
2023-03-24T05:31:09.798Z,4.00
2023-03-24T05:33:48.705Z,3.70
2023-03-24T05:36:23.399Z,3.97
2023-03-24T05:38:59.840Z,3.00
2023-03-24T05:41:42.492Z,3.43
2023-03-24T05:44:14.274Z,3.60
2023-03-24T05:46:47.629Z,3.53
2023-03-24T05:49:19.500Z,3.93
2023-03-24T05:51:51.239Z,3.50
2023-03-24T05:54:23.749Z,3.90
2023-03-24T05:57:01.857Z,3.50
2023-03-24T05:59:54.182Z,3.73
2023-03-24T06:02:46.457Z,3.57
2023-03-24T06:05:29.614Z,3.40
2023-03-24T06:08:01.542Z,3.73
2023-03-24T06:10:36.879Z,3.07
2023-03-24T06:13:09.549Z,4.10
2023-03-24T06:15:46.684Z,3.43
2023-03-24T06:18:40.484Z,3.90
2023-03-24T06:21:21.529Z,3.57
2023-03-24T06:23:53.649Z,3.20
2023-03-24T06:26:31.206Z,3.63
2023-03-24T06:29:04.890Z,3.73
2023-03-24T06:31:41.014Z,3.33
2023-03-24T06:34:12.893Z,3.37
2023-03-24T06:36:46.122Z,3.60
2023-03-24T06:39:18.690Z,3.67
2023-03-24T06:41:50.600Z,3.70
2023-03-24T06:44:22.550Z,3.87
2023-03-24T06:46:54.377Z,3.40
2023-03-24T06:49:26.350Z,3.83
2023-03-24T06:51:58.090Z,3.70
2023-03-24T06:54:32.568Z,4.17
2023-03-24T06:57:05.719Z,3.70
2023-03-24T06:59:57.599Z,3.77
2023-03-24T07:02:35.702Z,4.30
2023-03-24T07:05:09.576Z,4.00
2023-03-24T07:10:41.184Z,4.37
2023-03-24T07:13:12.940Z,4.40
2023-03-24T07:15:45.926Z,4.73
2023-03-24T07:18:19.407Z,3.77
2023-03-24T07:20:57.913Z,4.30
2023-03-24T07:23:30.395Z,5.03
2023-03-24T07:26:10.577Z,3.83
2023-03-24T07:29:02.387Z,3.57
2023-03-24T07:32:02.379Z,4.23
2023-03-24T07:34:36.160Z,4.00
2023-03-24T07:37:08.176Z,4.30
2023-03-24T07:39:39.901Z,4.03
2023-03-24T07:42:13.060Z,4.40
2023-03-24T07:45:00.953Z,3.73
2023-03-24T07:47:32.697Z,4.13
2023-03-24T07:50:10.057Z,3.90
2023-03-24T07:52:47.052Z,3.70
2023-03-24T07:55:19.405Z,4.43
2023-03-24T07:57:58.518Z,4.17
2023-03-24T08:00:33.620Z,4.17
2023-03-24T08:03:17.664Z,4.60
2023-03-24T08:06:12.607Z,4.53
2023-03-24T08:08:48.367Z,4.63
2023-03-24T08:11:20.398Z,4.27
2023-03-24T08:13:52.174Z,4.63
2023-03-24T08:16:24.874Z,4.77
2023-03-24T08:18:59.420Z,5.17
2023-03-24T08:21:31.144Z,5.10
2023-03-24T08:24:02.930Z,4.63
2023-03-24T08:26:35.367Z,4.90
2023-03-24T08:29:07.487Z,5.43
2023-03-24T08:31:39.239Z,4.80
2023-03-24T08:34:11.676Z,5.40
2023-03-24T08:36:43.534Z,5.10
2023-03-24T08:39:15.281Z,4.70
2023-03-24T08:41:50.112Z,5.00
2023-03-24T08:44:21.840Z,4.80
2023-03-24T08:46:53.609Z,4.93
2023-03-24T08:49:25.598Z,5.27
2023-03-24T08:51:57.296Z,5.20
2023-03-24T08:54:29.042Z,4.90
2023-03-24T08:57:00.884Z,5.70
2023-03-24T08:59:32.673Z,5.30
2023-03-24T09:02:04.437Z,5.50
2023-03-24T09:04:36.591Z,5.20
2023-03-24T09:07:09.818Z,4.80
2023-03-24T09:09:41.544Z,5.53
2023-03-24T09:12:13.476Z,4.87
2023-03-24T09:14:49.486Z,5.67
2023-03-24T09:17:21.677Z,4.77
2023-03-24T09:19:53.590Z,5.03
2023-03-24T09:22:25.353Z,5.03
2023-03-24T09:24:57.062Z,5.87
2023-03-24T09:27:29.100Z,5.70
2023-03-24T09:30:02.201Z,5.20
2023-03-24T09:32:34.108Z,4.87
2023-03-24T09:35:08.510Z,5.03
2023-03-24T09:37:41.330Z,5.03
2023-03-24T09:40:23.585Z,5.77
2023-03-24T09:43:16.878Z,5.27
2023-03-24T09:45:51.603Z,5.40
2023-03-24T09:48:36.700Z,5.80
2023-03-24T09:51:48.111Z,6.03
2023-03-24T09:54:29.097Z,5.97
2023-03-24T09:57:01.203Z,5.80
2023-03-24T09:59:38.540Z,5.33
2023-03-24T10:02:20.002Z,5.70
2023-03-24T10:04:51.826Z,5.67
2023-03-24T10:07:55.278Z,5.67
2023-03-24T10:10:36.133Z,5.20
2023-03-24T10:13:18.842Z,4.67
2023-03-24T10:16:00.715Z,4.27
2023-03-24T10:18:44.978Z,3.33
2023-03-24T10:21:24.826Z,3.50
2023-03-24T10:24:38.448Z,3.00
2023-03-24T10:27:35.982Z,3.47
2023-03-24T10:30:22.256Z,3.27
2023-03-24T10:32:54.925Z,2.70
2023-03-24T10:35:36.666Z,3.00
2023-03-24T10:38:26.968Z,2.73
2023-03-24T10:41:00.256Z,2.50
2023-03-24T10:43:32.346Z,2.23
2023-03-24T10:46:04.359Z,2.90
2023-03-24T10:48:41.887Z,2.70
2023-03-24T10:51:27.354Z,2.37
2023-03-24T10:54:15.814Z,2.37
2023-03-24T10:56:50.299Z,1.90
2023-03-24T10:59:34.052Z,2.37
2023-03-24T11:02:18.708Z,2.37
2023-03-24T11:04:59.866Z,2.07
2023-03-24T11:07:40.669Z,2.30
2023-03-24T11:10:19.143Z,2.10
2023-03-24T11:12:53.978Z,2.20
2023-03-24T11:15:30.618Z,1.70
2023-03-24T11:18:11.433Z,1.80
2023-03-24T11:20:53.307Z,1.60
2023-03-24T11:23:54.073Z,1.40
2023-03-24T11:26:33.383Z,1.70
2023-03-24T11:29:25.643Z,2.03
2023-03-24T11:32:02.618Z,2.33
2023-03-24T11:34:41.964Z,2.30
2023-03-24T11:37:17.345Z,2.50
2023-03-24T11:40:14.599Z,2.77
2023-03-24T11:42:50.715Z,2.70
2023-03-24T11:45:37.924Z,2.43
2023-03-24T11:48:17.859Z,2.90
2023-03-24T11:50:51.511Z,2.63
2023-03-24T11:53:28.264Z,2.63
2023-03-24T11:56:13.287Z,2.30
2023-03-24T11:58:56.265Z,3.03
2023-03-24T12:01:33.136Z,2.53
2023-03-24T12:04:41.778Z,2.47
2023-03-24T12:07:32.191Z,2.50
2023-03-24T12:10:35.902Z,2.10
2023-03-24T12:13:29.926Z,1.80
2023-03-24T12:16:39.333Z,1.33
2023-03-24T12:19:43.889Z,1.23
2023-03-24T12:22:41.781Z,1.57
2023-03-24T12:25:22.066Z,1.37
2023-03-24T12:28:27.671Z,1.57
2023-03-24T12:31:17.764Z,1.53
2023-03-24T12:34:27.521Z,1.70
2023-03-24T12:37:11.074Z,1.50
2023-03-24T12:39:57.331Z,1.50
2023-03-24T12:42:38.833Z,1.20
2023-03-24T12:45:38.294Z,1.30
2023-03-24T12:48:28.694Z,1.47
2023-03-24T12:51:18.624Z,1.10
2023-03-24T12:54:05.233Z,1.37
2023-03-24T12:56:51.898Z,1.37
2023-03-24T12:59:33.920Z,1.17
2023-03-24T13:02:32.560Z,1.27
2023-03-24T13:05:16.594Z,1.10
2023-03-24T13:07:54.156Z,1.00
2023-03-24T13:10:32.750Z,1.33
2023-03-24T13:13:22.533Z,1.40
2023-03-24T13:16:22.854Z,1.20
2023-03-24T13:19:00.419Z,1.20
2023-03-24T13:21:35.232Z,1.03
2023-03-24T13:24:15.390Z,3.20
2023-03-24T13:27:11.731Z,1.20
2023-03-24T13:30:20.449Z,1.40
2023-03-24T13:32:57.232Z,1.03
2023-03-24T13:35:54.104Z,1.20
2023-03-24T13:38:35.061Z,1.30
2023-03-24T13:41:11.574Z,1.27
2023-03-24T13:43:57.386Z,1.70
2023-03-24T13:46:29.474Z,1.40
2023-03-24T13:49:05.396Z,1.20
2023-03-24T13:51:40.999Z,1.00
2023-03-24T13:54:31.225Z,1.10
2023-03-24T13:57:12.941Z,1.00
2023-03-24T14:00:17.372Z,1.10
2023-03-24T14:02:58.188Z,0.90
2023-03-24T14:05:33.365Z,1.10
2023-03-24T14:08:04.994Z,1.10
2023-03-24T14:10:54.729Z,0.87
2023-03-24T14:13:47.134Z,1.00
2023-03-24T14:16:43.710Z,0.90
2023-03-24T14:19:21.942Z,1.10
2023-03-24T14:22:03.304Z,0.87
2023-03-24T14:24:36.693Z,0.80
2023-03-24T14:27:23.681Z,0.90
2023-03-24T14:30:00.801Z,1.00
2023-03-24T14:32:38.972Z,0.70
2023-03-24T14:35:23.595Z,0.80
2023-03-24T14:38:04.655Z,1.00
2023-03-24T14:40:37.834Z,0.60
2023-03-24T14:43:30.390Z,0.80
2023-03-24T14:46:23.535Z,0.80
2023-03-24T14:49:07.362Z,0.60
2023-03-24T14:51:51.220Z,0.70
2023-03-24T14:54:22.961Z,0.90
2023-03-24T14:56:55.977Z,0.60
2023-03-24T15:00:01.007Z,0.80
2023-03-24T15:02:44.656Z,0.70
2023-03-24T15:05:25.543Z,0.50
2023-03-24T15:08:05.962Z,0.40
2023-03-24T15:10:42.079Z,0.50
2023-03-24T15:13:41.717Z,0.50
2023-03-24T15:16:13.421Z,0.50
2023-03-24T15:18:59.967Z,0.50
2023-03-24T15:21:39.687Z,0.40
2023-03-24T15:24:28.048Z,0.60
2023-03-24T15:27:14.807Z,0.33
2023-03-24T15:29:52.986Z,0.60
2023-03-24T15:32:27.431Z,0.53
2023-03-24T15:35:05.489Z,0.63
2023-03-24T15:37:43.131Z,0.60
2023-03-24T15:40:26.770Z,0.50
2023-03-24T15:43:04.078Z,0.50
2023-03-24T15:45:51.039Z,0.57
2023-03-24T15:48:26.639Z,0.80
2023-03-24T15:51:04.280Z,0.70
2023-03-24T15:53:44.280Z,2.50
2023-03-24T15:56:36.430Z,0.80
2023-03-24T15:59:15.432Z,1.13
2023-03-24T16:01:50.305Z,0.90
2023-03-24T16:04:23.445Z,0.80
2023-03-24T16:06:57.749Z,0.90
2023-03-24T16:09:40.779Z,0.80
2023-03-24T16:12:12.525Z,0.70
2023-03-24T16:14:44.245Z,1.30
2023-03-24T16:17:16.119Z,0.80
2023-03-24T16:19:47.832Z,0.70
2023-03-24T16:22:19.531Z,0.50
2023-03-24T16:24:51.301Z,0.57
2023-03-24T16:27:23.060Z,0.67
2023-03-24T16:29:55.730Z,0.73
2023-03-24T16:32:27.542Z,0.60
2023-03-24T16:34:59.238Z,0.73
2023-03-24T16:37:31.613Z,1.63
2023-03-24T16:40:06.162Z,1.07
2023-03-24T16:42:37.907Z,0.50
2023-03-24T16:45:10.127Z,0.50
2023-03-24T16:47:42.009Z,0.77
2023-03-24T16:50:43.983Z,0.60
2023-03-24T16:53:16.080Z,0.70
2023-03-24T16:55:48.364Z,0.60
2023-03-24T16:58:20.195Z,0.30
2023-03-24T17:00:53.443Z,0.90
2023-03-24T17:03:29.605Z,0.73
2023-03-24T17:06:03.448Z,0.70
2023-03-24T17:08:35.448Z,0.90
2023-03-24T17:11:10.421Z,0.70
2023-03-24T17:13:42.112Z,0.10
2023-03-24T17:16:15.379Z,0.70
2023-03-24T17:18:47.078Z,0.83
2023-03-24T17:21:19.988Z,0.70
2023-03-24T17:23:54.977Z,0.60
2023-03-24T17:26:26.836Z,0.73
2023-03-24T17:28:58.685Z,0.60
2023-03-24T17:31:30.854Z,0.57
2023-03-24T17:34:20.385Z,0.33
2023-03-24T17:36:53.119Z,0.60
2023-03-24T17:39:24.838Z,0.43
2023-03-24T17:42:00.454Z,0.47
2023-03-24T17:44:33.604Z,0.47
2023-03-24T17:47:05.849Z,0.53
2023-03-24T17:49:37.609Z,0.50
2023-03-24T17:52:09.511Z,0.40
2023-03-24T17:54:41.233Z,0.93
2023-03-24T17:57:13.042Z,0.40
2023-03-24T17:59:45.034Z,0.60
2023-03-24T18:02:17.762Z,0.70
2023-03-24T18:04:49.537Z,0.80
2023-03-24T18:07:21.321Z,1.10
2023-03-24T18:09:53.062Z,1.00
2023-03-24T18:12:25.952Z,0.90
2023-03-24T18:14:57.742Z,0.80
2023-03-24T18:17:29.652Z,1.10
2023-03-24T18:20:09.982Z,0.90
2023-03-24T18:22:41.771Z,1.00
2023-03-24T18:25:14.203Z,0.57
2023-03-24T18:27:45.948Z,1.10
2023-03-24T18:30:17.726Z,0.97
2023-03-24T18:32:49.665Z,0.70
2023-03-24T18:35:22.449Z,0.70
2023-03-24T18:37:55.293Z,0.53
2023-03-24T18:40:27.454Z,0.93
2023-03-24T18:42:59.158Z,0.87
2023-03-24T18:45:31.180Z,1.07
2023-03-24T18:48:02.977Z,1.27
2023-03-24T18:50:38.507Z,0.97
2023-03-24T18:53:13.295Z,0.73
2023-03-24T18:55:51.106Z,0.83
2023-03-24T18:58:23.229Z,0.90
2023-03-24T19:00:57.108Z,0.90
2023-03-24T19:03:29.122Z,0.80
2023-03-24T19:06:02.428Z,0.90
2023-03-24T19:08:37.842Z,0.63
2023-03-24T19:11:10.530Z,0.93
2023-03-24T19:13:44.105Z,0.90
2023-03-24T19:16:16.986Z,1.10
2023-03-24T19:18:50.405Z,1.40
2023-03-24T19:21:23.100Z,1.07
2023-03-24T19:23:54.849Z,0.90
2023-03-24T19:26:26.584Z,0.70
2023-03-24T19:28:58.395Z,1.00
2023-03-24T19:31:33.505Z,0.77
2023-03-24T19:34:05.385Z,0.70
2023-03-24T19:36:41.575Z,0.60
2023-03-24T19:39:17.573Z,0.53
2023-03-24T19:41:49.347Z,0.73
2023-03-24T19:44:22.424Z,0.70
2023-03-24T19:46:54.167Z,0.70
2023-03-24T19:49:26.304Z,0.53
2023-03-24T19:51:58.320Z,0.80
2023-03-24T19:54:30.303Z,0.70
2023-03-24T19:57:02.112Z,0.57
2023-03-24T19:59:34.809Z,0.43
2023-03-24T20:02:09.486Z,0.83
2023-03-24T20:04:41.438Z,0.80
2023-03-24T20:07:13.150Z,0.67
2023-03-24T20:09:45.324Z,0.70
2023-03-24T20:12:17.113Z,1.00
2023-03-24T20:14:48.978Z,0.50
2023-03-24T20:17:22.923Z,0.53
2023-03-24T20:19:54.897Z,0.57
2023-03-24T20:22:26.582Z,0.70
2023-03-24T20:24:58.346Z,0.60
2023-03-24T20:27:30.757Z,0.63
2023-03-24T20:30:03.486Z,0.70
2023-03-24T20:32:35.682Z,0.57
2023-03-24T20:35:09.129Z,1.00
2023-03-24T20:37:40.922Z,2.03
2023-03-24T20:40:12.773Z,0.77
2023-03-24T20:42:44.480Z,1.60
2023-03-24T20:45:16.609Z,1.27
2023-03-24T20:47:48.381Z,1.00
2023-03-24T20:50:20.509Z,0.80
2023-03-24T20:52:52.272Z,0.73
2023-03-24T20:55:24.004Z,0.73
2023-03-24T20:57:56.516Z,0.83
2023-03-24T21:00:29.720Z,0.67
2023-03-24T21:03:01.783Z,0.70
2023-03-24T21:05:33.649Z,0.83
2023-03-24T21:08:05.419Z,0.80
2023-03-24T21:10:38.068Z,0.83
2023-03-24T21:13:09.902Z,0.90
2023-03-24T21:15:43.213Z,0.60
2023-03-24T21:18:16.880Z,0.60
2023-03-24T21:20:55.878Z,0.80
2023-03-24T21:23:27.589Z,0.90
2023-03-24T21:25:59.639Z,0.50
2023-03-24T21:28:31.971Z,1.30
2023-03-24T21:31:09.545Z,1.00
2023-03-24T21:33:43.445Z,0.70
2023-03-24T21:36:15.785Z,0.83
2023-03-24T21:38:49.618Z,0.83
2023-03-24T21:41:23.020Z,0.73
2023-03-24T21:43:54.764Z,0.70
2023-03-24T21:46:27.821Z,1.03
2023-03-24T21:49:00.850Z,1.27
2023-03-24T21:51:34.426Z,0.90
2023-03-24T21:54:07.374Z,1.10
2023-03-24T21:56:39.163Z,0.83
2023-03-24T21:59:11.312Z,1.20
2023-03-24T22:01:43.178Z,0.63
2023-03-24T22:04:15.704Z,0.87
2023-03-24T22:06:47.631Z,1.13
2023-03-24T22:09:19.417Z,0.77
2023-03-24T22:11:52.882Z,0.93
2023-03-24T22:14:24.599Z,0.90
2023-03-24T22:16:56.661Z,0.97
2023-03-24T22:19:28.491Z,0.70
2023-03-24T22:22:02.046Z,1.17
2023-03-24T22:24:34.151Z,0.70
2023-03-24T22:27:05.961Z,0.80
2023-03-24T22:29:37.644Z,0.80
2023-03-24T22:32:09.419Z,0.90
2023-03-24T22:34:41.146Z,0.97
2023-03-24T22:37:12.849Z,0.70
2023-03-24T22:39:44.566Z,0.50
2023-03-24T22:42:16.267Z,0.70
2023-03-24T22:44:48.009Z,0.80
2023-03-24T22:47:19.868Z,0.70
2023-03-24T22:49:51.614Z,0.53
2023-03-24T22:52:23.465Z,0.93
2023-03-24T22:54:55.168Z,0.60
2023-03-24T22:57:27.262Z,0.90
2023-03-24T23:00:01.865Z,0.80
2023-03-24T23:02:34.396Z,0.53
2023-03-24T23:05:06.438Z,0.87
2023-03-24T23:07:38.241Z,0.60
2023-03-24T23:10:11.663Z,0.70
2023-03-24T23:12:46.281Z,0.60
2023-03-24T23:15:18.508Z,0.87
2023-03-24T23:17:51.624Z,0.70
2023-03-24T23:20:23.980Z,0.60
2023-03-24T23:22:56.733Z,0.70
2023-03-24T23:25:31.102Z,0.90
2023-03-24T23:28:03.101Z,0.43
2023-03-24T23:30:34.951Z,0.60
2023-03-24T23:33:06.831Z,0.57
2023-03-24T23:35:38.647Z,0.57
2023-03-24T23:38:10.512Z,0.63
2023-03-24T23:40:42.782Z,0.70
2023-03-24T23:43:14.559Z,0.87
2023-03-24T23:45:46.658Z,0.60
2023-03-24T23:48:18.416Z,0.60
2023-03-24T23:51:01.567Z,0.80
2023-03-24T23:53:33.691Z,0.67
2023-03-24T23:56:08.162Z,0.40
2023-03-24T23:58:41.440Z,0.60
